sensor_id;sensor_type;location;lat;lon;timestamp;noise_LAeq;noise_LA_min;noise_LA_max;noise_LA01;noise_LA95
73663;Laerm;61956;52.540;13.382;2023-05-20T00:01:28;62.17;57.76;67.02;;
73663;Laerm;61956;52.540;13.382;2023-05-20T00:03:57;62.18;57.85;67.63;;
73663;Laerm;61956;52.540;13.382;2023-05-20T00:06:26;62.19;57.95;66.84;;
73663;Laerm;61956;52.540;13.382;2023-05-20T00:08:57;62.21;57.72;66.54;;
73663;Laerm;61956;52.540;13.382;2023-05-20T00:11:29;62.18;57.63;66.57;;
73663;Laerm;61956;52.540;13.382;2023-05-20T00:13:59;62.20;57.50;66.50;;
73663;Laerm;61956;52.540;13.382;2023-05-20T00:16:28;62.21;57.66;66.86;;
73663;Laerm;61956;52.540;13.382;2023-05-20T00:18:57;62.17;57.67;66.97;;
73663;Laerm;61956;52.540;13.382;2023-05-20T00:21:26;62.19;57.77;67.53;;
73663;Laerm;61956;52.540;13.382;2023-05-20T00:23:57;62.19;57.66;67.12;;
73663;Laerm;61956;52.540;13.382;2023-05-20T00:26:29;62.19;57.58;67.36;;
73663;Laerm;61956;52.540;13.382;2023-05-20T00:28:58;62.19;57.72;66.77;;
73663;Laerm;61956;52.540;13.382;2023-05-20T00:31:28;62.19;57.80;67.49;;
73663;Laerm;61956;52.540;13.382;2023-05-20T00:33:57;62.14;57.72;67.40;;
73663;Laerm;61956;52.540;13.382;2023-05-20T00:36:26;62.14;57.71;66.27;;
73663;Laerm;61956;52.540;13.382;2023-05-20T00:38:56;62.17;57.73;66.92;;
73663;Laerm;61956;52.540;13.382;2023-05-20T00:41:25;62.15;57.70;66.65;;
73663;Laerm;61956;52.540;13.382;2023-05-20T00:43:57;62.11;57.69;66.68;;
73663;Laerm;61956;52.540;13.382;2023-05-20T00:46:27;62.14;57.72;67.68;;
73663;Laerm;61956;52.540;13.382;2023-05-20T00:48:57;62.15;57.60;67.13;;
73663;Laerm;61956;52.540;13.382;2023-05-20T00:51:26;62.19;57.72;66.80;;
73663;Laerm;61956;52.540;13.382;2023-05-20T00:53:56;62.09;57.55;66.73;;
73663;Laerm;61956;52.540;13.382;2023-05-20T00:56:26;62.12;57.33;67.59;;
73663;Laerm;61956;52.540;13.382;2023-05-20T00:58:58;62.08;57.52;67.32;;
73663;Laerm;61956;52.540;13.382;2023-05-20T01:01:27;62.07;57.48;66.79;;
73663;Laerm;61956;52.540;13.382;2023-05-20T01:03:58;62.10;57.31;66.85;;
73663;Laerm;61956;52.540;13.382;2023-05-20T01:06:27;62.11;57.45;66.62;;
73663;Laerm;61956;52.540;13.382;2023-05-20T01:08:56;62.09;57.31;66.98;;
73663;Laerm;61956;52.540;13.382;2023-05-20T01:11:32;62.08;57.46;66.35;;
73663;Laerm;61956;52.540;13.382;2023-05-20T01:14:07;62.04;57.75;67.54;;
73663;Laerm;61956;52.540;13.382;2023-05-20T01:16:40;62.09;57.66;67.94;;
73663;Laerm;61956;52.540;13.382;2023-05-20T01:19:22;62.05;57.48;66.57;;
73663;Laerm;61956;52.540;13.382;2023-05-20T01:21:56;62.03;57.71;66.81;;
73663;Laerm;61956;52.540;13.382;2023-05-20T01:24:29;62.04;57.51;67.12;;
73663;Laerm;61956;52.540;13.382;2023-05-20T01:26:59;62.02;57.59;66.31;;
73663;Laerm;61956;52.540;13.382;2023-05-20T01:29:28;62.02;57.29;66.84;;
73663;Laerm;61956;52.540;13.382;2023-05-20T01:34:29;63.65;58.04;67.93;;
73663;Laerm;61956;52.540;13.382;2023-05-20T01:36:59;63.60;57.75;67.61;;
73663;Laerm;61956;52.540;13.382;2023-05-20T01:39:35;63.53;57.72;67.82;;
73663;Laerm;61956;52.540;13.382;2023-05-20T01:42:05;63.48;57.95;67.84;;
73663;Laerm;61956;52.540;13.382;2023-05-20T01:44:36;63.39;57.90;67.54;;
73663;Laerm;61956;52.540;13.382;2023-05-20T01:47:05;63.34;57.57;68.00;;
73663;Laerm;61956;52.540;13.382;2023-05-20T01:49:34;63.29;57.86;67.97;;
73663;Laerm;61956;52.540;13.382;2023-05-20T01:52:05;63.15;57.51;68.07;;
73663;Laerm;61956;52.540;13.382;2023-05-20T01:54:37;63.23;57.82;68.09;;
73663;Laerm;61956;52.540;13.382;2023-05-20T01:57:07;63.18;57.72;67.65;;
73663;Laerm;61956;52.540;13.382;2023-05-20T01:59:36;63.04;57.76;67.99;;
73663;Laerm;61956;52.540;13.382;2023-05-20T02:02:06;63.07;57.85;67.84;;
73663;Laerm;61956;52.540;13.382;2023-05-20T02:04:35;63.14;57.89;67.50;;
73663;Laerm;61956;52.540;13.382;2023-05-20T02:07:05;62.96;57.64;68.02;;
73663;Laerm;61956;52.540;13.382;2023-05-20T02:09:37;62.92;57.45;67.81;;
73663;Laerm;61956;52.540;13.382;2023-05-20T02:12:07;62.91;57.67;67.47;;
73663;Laerm;61956;52.540;13.382;2023-05-20T02:14:41;62.92;57.73;67.73;;
73663;Laerm;61956;52.540;13.382;2023-05-20T02:17:10;62.80;57.67;67.48;;
73663;Laerm;61956;52.540;13.382;2023-05-20T02:19:41;62.82;57.62;68.01;;
73663;Laerm;61956;52.540;13.382;2023-05-20T02:22:10;62.80;57.70;68.24;;
73663;Laerm;61956;52.540;13.382;2023-05-20T02:24:42;62.71;57.76;67.86;;
73663;Laerm;61956;52.540;13.382;2023-05-20T02:27:12;62.72;57.50;67.68;;
73663;Laerm;61956;52.540;13.382;2023-05-20T02:29:42;62.69;57.69;68.01;;
73663;Laerm;61956;52.540;13.382;2023-05-20T02:32:11;62.65;57.78;67.59;;
73663;Laerm;61956;52.540;13.382;2023-05-20T02:34:40;62.59;57.67;67.71;;
73663;Laerm;61956;52.540;13.382;2023-05-20T02:37:10;62.53;57.78;67.96;;
73663;Laerm;61956;52.540;13.382;2023-05-20T02:39:39;62.60;57.63;67.58;;
73663;Laerm;61956;52.540;13.382;2023-05-20T02:42:11;62.59;57.74;67.74;;
73663;Laerm;61956;52.540;13.382;2023-05-20T02:44:40;62.55;57.64;67.51;;
73663;Laerm;61956;52.540;13.382;2023-05-20T02:47:09;62.58;57.75;67.49;;
73663;Laerm;61956;52.540;13.382;2023-05-20T02:49:39;62.63;57.76;68.05;;
73663;Laerm;61956;52.540;13.382;2023-05-20T02:52:08;62.99;57.86;68.97;;
73663;Laerm;61956;52.540;13.382;2023-05-20T02:54:37;62.56;57.77;67.28;;
73663;Laerm;61956;52.540;13.382;2023-05-20T02:57:06;62.45;57.40;67.49;;
73663;Laerm;61956;52.540;13.382;2023-05-20T02:59:38;62.38;57.73;67.06;;
73663;Laerm;61956;52.540;13.382;2023-05-20T03:02:07;62.40;57.78;67.46;;
73663;Laerm;61956;52.540;13.382;2023-05-20T03:04:37;62.49;57.74;67.42;;
73663;Laerm;61956;52.540;13.382;2023-05-20T03:07:06;62.41;57.53;67.42;;
73663;Laerm;61956;52.540;13.382;2023-05-20T03:09:35;62.44;57.60;67.97;;
73663;Laerm;61956;52.540;13.382;2023-05-20T03:12:05;62.43;57.77;67.04;;
73663;Laerm;61956;52.540;13.382;2023-05-20T03:14:34;62.37;57.62;67.14;;
73663;Laerm;61956;52.540;13.382;2023-05-20T03:17:07;62.41;57.69;67.35;;
73663;Laerm;61956;52.540;13.382;2023-05-20T03:19:37;62.38;57.52;67.81;;
73663;Laerm;61956;52.540;13.382;2023-05-20T03:22:06;62.36;57.38;67.36;;
73663;Laerm;61956;52.540;13.382;2023-05-20T03:24:35;62.39;57.55;67.49;;
73663;Laerm;61956;52.540;13.382;2023-05-20T03:27:05;62.40;57.48;67.68;;
73663;Laerm;61956;52.540;13.382;2023-05-20T03:29:34;62.46;57.54;67.54;;
73663;Laerm;61956;52.540;13.382;2023-05-20T03:32:07;62.52;57.57;71.01;;
73663;Laerm;61956;52.540;13.382;2023-05-20T03:34:36;62.41;57.64;67.91;;
73663;Laerm;61956;52.540;13.382;2023-05-20T03:37:06;62.38;57.72;67.44;;
73663;Laerm;61956;52.540;13.382;2023-05-20T03:39:36;62.49;57.81;67.30;;
73663;Laerm;61956;52.540;13.382;2023-05-20T03:42:05;62.41;57.59;67.55;;
73663;Laerm;61956;52.540;13.382;2023-05-20T03:44:34;62.41;57.84;67.70;;
73663;Laerm;61956;52.540;13.382;2023-05-20T03:47:06;62.38;57.64;68.00;;
73663;Laerm;61956;52.540;13.382;2023-05-20T03:49:35;62.44;57.70;67.79;;
73663;Laerm;61956;52.540;13.382;2023-05-20T03:52:06;62.49;57.70;69.56;;
73663;Laerm;61956;52.540;13.382;2023-05-20T03:54:35;62.69;57.69;74.92;;
73663;Laerm;61956;52.540;13.382;2023-05-20T03:57:05;62.72;57.74;71.77;;
73663;Laerm;61956;52.540;13.382;2023-05-20T03:59:35;62.53;57.73;67.46;;
73663;Laerm;61956;52.540;13.382;2023-05-20T04:02:08;62.53;57.60;67.85;;
73663;Laerm;61956;52.540;13.382;2023-05-20T04:04:37;62.66;57.44;67.15;;
73663;Laerm;61956;52.540;13.382;2023-05-20T04:07:10;62.63;57.69;67.91;;
73663;Laerm;61956;52.540;13.382;2023-05-20T04:09:40;62.58;57.78;67.86;;
73663;Laerm;61956;52.540;13.382;2023-05-20T04:12:09;62.58;57.48;67.54;;
73663;Laerm;61956;52.540;13.382;2023-05-20T04:14:39;62.62;57.51;67.62;;
73663;Laerm;61956;52.540;13.382;2023-05-20T04:17:10;62.61;57.55;67.69;;
73663;Laerm;61956;52.540;13.382;2023-05-20T04:19:40;62.48;57.69;67.38;;
73663;Laerm;61956;52.540;13.382;2023-05-20T04:22:10;62.60;57.52;67.56;;
73663;Laerm;61956;52.540;13.382;2023-05-20T04:24:39;62.65;57.81;67.66;;
73663;Laerm;61956;52.540;13.382;2023-05-20T04:27:08;62.75;57.86;67.89;;
73663;Laerm;61956;52.540;13.382;2023-05-20T04:29:38;62.63;57.69;67.50;;
73663;Laerm;61956;52.540;13.382;2023-05-20T04:32:18;62.69;57.55;67.66;;
73663;Laerm;61956;52.540;13.382;2023-05-20T04:34:48;62.61;57.64;67.38;;
73663;Laerm;61956;52.540;13.382;2023-05-20T04:37:18;62.72;57.61;67.86;;
73663;Laerm;61956;52.540;13.382;2023-05-20T04:39:47;62.62;57.80;68.08;;
73663;Laerm;61956;52.540;13.382;2023-05-20T04:42:18;62.60;57.64;67.47;;
73663;Laerm;61956;52.540;13.382;2023-05-20T04:44:48;62.62;57.55;67.77;;
73663;Laerm;61956;52.540;13.382;2023-05-20T04:47:20;62.60;57.76;67.86;;
73663;Laerm;61956;52.540;13.382;2023-05-20T04:49:49;62.81;57.89;68.03;;
73663;Laerm;61956;52.540;13.382;2023-05-20T04:52:18;62.66;57.69;67.55;;
73663;Laerm;61956;52.540;13.382;2023-05-20T04:54:47;62.72;57.60;68.59;;
73663;Laerm;61956;52.540;13.382;2023-05-20T04:57:17;62.70;57.59;68.23;;
73663;Laerm;61956;52.540;13.382;2023-05-20T04:59:47;62.76;57.67;67.96;;
73663;Laerm;61956;52.540;13.382;2023-05-20T05:02:18;62.77;57.56;67.71;;
73663;Laerm;61956;52.540;13.382;2023-05-20T05:04:48;62.75;57.62;67.91;;
73663;Laerm;61956;52.540;13.382;2023-05-20T05:07:17;62.84;57.66;68.00;;
73663;Laerm;61956;52.540;13.382;2023-05-20T05:09:47;62.91;57.71;67.62;;
73663;Laerm;61956;52.540;13.382;2023-05-20T05:12:16;62.83;57.78;67.70;;
73663;Laerm;61956;52.540;13.382;2023-05-20T05:14:45;63.00;57.70;67.79;;
73663;Laerm;61956;52.540;13.382;2023-05-20T05:17:15;62.87;57.84;67.94;;
73663;Laerm;61956;52.540;13.382;2023-05-20T05:19:47;63.06;57.62;67.97;;
73663;Laerm;61956;52.540;13.382;2023-05-20T05:22:16;62.92;57.85;67.67;;
73663;Laerm;61956;52.540;13.382;2023-05-20T05:24:45;63.01;57.80;67.99;;
73663;Laerm;61956;52.540;13.382;2023-05-20T05:27:15;63.07;57.77;67.52;;
73663;Laerm;61956;52.540;13.382;2023-05-20T05:29:44;63.05;57.74;67.64;;
73663;Laerm;61956;52.540;13.382;2023-05-20T05:32:13;63.13;57.52;68.00;;
73663;Laerm;61956;52.540;13.382;2023-05-20T05:34:45;63.10;57.86;68.58;;
73663;Laerm;61956;52.540;13.382;2023-05-20T05:39:43;61.16;57.43;66.29;;
73663;Laerm;61956;52.540;13.382;2023-05-20T05:42:13;61.16;57.48;65.95;;
73663;Laerm;61956;52.540;13.382;2023-05-20T05:44:42;61.15;57.54;65.77;;
73663;Laerm;61956;52.540;13.382;2023-05-20T05:47:13;61.12;57.69;65.42;;
73663;Laerm;61956;52.540;13.382;2023-05-20T05:49:42;61.15;57.56;69.33;;
73663;Laerm;61956;52.540;13.382;2023-05-20T05:52:14;61.10;57.35;66.14;;
73663;Laerm;61956;52.540;13.382;2023-05-20T05:54:43;61.11;57.57;65.62;;
73663;Laerm;61956;52.540;13.382;2023-05-20T05:57:12;61.06;57.51;65.45;;
73663;Laerm;61956;52.540;13.382;2023-05-20T05:59:42;61.04;57.44;64.74;;
73663;Laerm;61956;52.540;13.382;2023-05-20T06:02:11;61.07;57.40;65.68;;
73663;Laerm;61956;52.540;13.382;2023-05-20T06:04:40;61.07;57.50;65.70;;
73663;Laerm;61956;52.540;13.382;2023-05-20T06:07:13;61.04;57.46;65.44;;
73663;Laerm;61956;52.540;13.382;2023-05-20T06:09:42;61.08;57.48;65.35;;
73663;Laerm;61956;52.540;13.382;2023-05-20T06:12:11;61.11;57.45;65.92;;
73663;Laerm;61956;52.540;13.382;2023-05-20T06:14:40;61.09;57.36;65.49;;
73663;Laerm;61956;52.540;13.382;2023-05-20T06:17:10;61.10;57.60;65.71;;
73663;Laerm;61956;52.540;13.382;2023-05-20T06:19:39;61.10;57.55;65.07;;
73663;Laerm;61956;52.540;13.382;2023-05-20T06:22:09;61.06;57.29;65.61;;
73663;Laerm;61956;52.540;13.382;2023-05-20T06:24:41;61.07;57.52;65.36;;
73663;Laerm;61956;52.540;13.382;2023-05-20T06:27:12;61.45;57.46;70.17;;
73663;Laerm;61956;52.540;13.382;2023-05-20T06:29:41;61.21;57.67;66.03;;
73663;Laerm;61956;52.540;13.382;2023-05-20T06:32:11;61.08;57.50;65.76;;
73663;Laerm;61956;52.540;13.382;2023-05-20T06:34:42;61.16;57.50;65.25;;
73663;Laerm;61956;52.540;13.382;2023-05-20T06:37:11;61.18;57.59;65.12;;
73663;Laerm;61956;52.540;13.382;2023-05-20T06:39:43;61.04;57.20;65.41;;
73663;Laerm;61956;52.540;13.382;2023-05-20T06:42:12;61.11;57.48;65.00;;
73663;Laerm;61956;52.540;13.382;2023-05-20T06:44:47;61.11;57.49;66.54;;
73663;Laerm;61956;52.540;13.382;2023-05-20T06:47:21;61.12;57.61;65.25;;
73663;Laerm;61956;52.540;13.382;2023-05-20T06:49:52;61.05;57.68;65.18;;
73663;Laerm;61956;52.540;13.382;2023-05-20T06:52:21;61.10;57.44;67.34;;
73663;Laerm;61956;52.540;13.382;2023-05-20T06:54:53;61.13;57.54;65.59;;
73663;Laerm;61956;52.540;13.382;2023-05-20T06:57:23;61.17;57.40;71.76;;
73663;Laerm;61956;52.540;13.382;2023-05-20T06:59:52;61.21;57.40;65.71;;
73663;Laerm;61956;52.540;13.382;2023-05-20T07:02:22;61.10;57.54;65.22;;
73663;Laerm;61956;52.540;13.382;2023-05-20T07:04:52;61.08;57.67;64.89;;
73663;Laerm;61956;52.540;13.382;2023-05-20T07:07:21;61.10;57.54;65.35;;
73663;Laerm;61956;52.540;13.382;2023-05-20T07:09:53;61.13;57.61;65.39;;
73663;Laerm;61956;52.540;13.382;2023-05-20T07:12:23;61.09;57.50;64.91;;
73663;Laerm;61956;52.540;13.382;2023-05-20T07:14:52;61.11;57.33;65.59;;
73663;Laerm;61956;52.540;13.382;2023-05-20T07:17:21;61.12;57.66;65.51;;
73663;Laerm;61956;52.540;13.382;2023-05-20T07:19:51;61.12;57.70;65.11;;
73663;Laerm;61956;52.540;13.382;2023-05-20T07:22:20;61.11;57.55;65.10;;
73663;Laerm;61956;52.540;13.382;2023-05-20T07:24:59;61.10;57.32;65.38;;
73663;Laerm;61956;52.540;13.382;2023-05-20T07:27:28;61.19;57.63;69.72;;
73663;Laerm;61956;52.540;13.382;2023-05-20T07:29:59;61.12;57.51;65.46;;
73663;Laerm;61956;52.540;13.382;2023-05-20T07:32:30;61.14;57.72;64.87;;
73663;Laerm;61956;52.540;13.382;2023-05-20T07:34:59;61.13;57.71;65.22;;
73663;Laerm;61956;52.540;13.382;2023-05-20T07:37:29;61.20;57.66;65.36;;
73663;Laerm;61956;52.540;13.382;2023-05-20T07:40:02;61.14;57.39;65.26;;
73663;Laerm;61956;52.540;13.382;2023-05-20T07:42:32;61.20;57.59;64.99;;
73663;Laerm;61956;52.540;13.382;2023-05-20T07:45:01;61.14;57.64;64.71;;
73663;Laerm;61956;52.540;13.382;2023-05-20T07:47:31;61.17;57.74;65.69;;
73663;Laerm;61956;52.540;13.382;2023-05-20T07:50:01;61.16;57.57;64.78;;
73663;Laerm;61956;52.540;13.382;2023-05-20T07:52:33;61.13;57.63;65.47;;
73663;Laerm;61956;52.540;13.382;2023-05-20T07:55:06;61.18;57.68;65.42;;
73663;Laerm;61956;52.540;13.382;2023-05-20T07:57:35;61.14;57.52;64.81;;
73663;Laerm;61956;52.540;13.382;2023-05-20T08:00:07;61.18;57.66;64.95;;
73663;Laerm;61956;52.540;13.382;2023-05-20T08:02:43;61.16;57.69;64.85;;
73663;Laerm;61956;52.540;13.382;2023-05-20T08:05:16;61.13;57.59;65.17;;
73663;Laerm;61956;52.540;13.382;2023-05-20T08:07:46;61.20;57.80;65.00;;
73663;Laerm;61956;52.540;13.382;2023-05-20T08:10:19;61.22;57.66;65.96;;
73663;Laerm;61956;52.540;13.382;2023-05-20T08:12:49;61.12;57.61;64.48;;
73663;Laerm;61956;52.540;13.382;2023-05-20T08:15:18;61.20;57.75;64.57;;
73663;Laerm;61956;52.540;13.382;2023-05-20T08:17:48;61.13;57.79;65.06;;
73663;Laerm;61956;52.540;13.382;2023-05-20T08:20:18;61.32;57.67;65.54;;
73663;Laerm;61956;52.540;13.382;2023-05-20T08:22:49;61.12;57.55;65.23;;
73663;Laerm;61956;52.540;13.382;2023-05-20T08:25:21;61.15;57.74;64.86;;
73663;Laerm;61956;52.540;13.382;2023-05-20T08:27:51;61.07;57.78;64.65;;
73663;Laerm;61956;52.540;13.382;2023-05-20T08:30:20;61.07;57.50;64.65;;
73663;Laerm;61956;52.540;13.382;2023-05-20T08:32:50;61.09;57.39;64.84;;
73663;Laerm;61956;52.540;13.382;2023-05-20T08:35:19;61.12;57.78;64.63;;
73663;Laerm;61956;52.540;13.382;2023-05-20T08:37:48;61.16;57.60;64.71;;
73663;Laerm;61956;52.540;13.382;2023-05-20T08:40:21;60.98;57.60;64.87;;
73663;Laerm;61956;52.540;13.382;2023-05-20T08:42:51;61.02;57.73;65.18;;
73663;Laerm;61956;52.540;13.382;2023-05-20T08:45:24;61.07;57.83;64.78;;
73663;Laerm;61956;52.540;13.382;2023-05-20T08:47:58;61.19;57.74;69.49;;
73663;Laerm;61956;52.540;13.382;2023-05-20T08:50:28;61.05;57.88;64.50;;
73663;Laerm;61956;52.540;13.382;2023-05-20T08:52:58;61.04;57.75;65.19;;
73663;Laerm;61956;52.540;13.382;2023-05-20T08:55:37;60.97;57.64;65.12;;
73663;Laerm;61956;52.540;13.382;2023-05-20T08:58:10;61.03;57.70;64.99;;
73663;Laerm;61956;52.540;13.382;2023-05-20T09:00:40;60.98;57.86;65.23;;
73663;Laerm;61956;52.540;13.382;2023-05-20T09:03:09;60.99;57.65;65.49;;
73663;Laerm;61956;52.540;13.382;2023-05-20T09:05:39;60.97;57.62;64.63;;
73663;Laerm;61956;52.540;13.382;2023-05-20T09:08:09;60.94;57.61;65.99;;
73663;Laerm;61956;52.540;13.382;2023-05-20T09:10:42;60.96;57.37;64.52;;
73663;Laerm;61956;52.540;13.382;2023-05-20T09:13:11;60.98;57.85;65.15;;
73663;Laerm;61956;52.540;13.382;2023-05-20T09:15:40;61.00;57.57;65.07;;
73663;Laerm;61956;52.540;13.382;2023-05-20T09:18:11;61.01;57.73;66.73;;
73663;Laerm;61956;52.540;13.382;2023-05-20T09:20:40;61.00;57.42;69.33;;
73663;Laerm;61956;52.540;13.382;2023-05-20T09:23:09;60.96;57.48;64.35;;
73663;Laerm;61956;52.540;13.382;2023-05-20T09:25:41;60.96;57.47;65.65;;
73663;Laerm;61956;52.540;13.382;2023-05-20T09:28:10;61.00;57.34;66.34;;
73663;Laerm;61956;52.540;13.382;2023-05-20T09:30:39;60.98;57.72;64.99;;
73663;Laerm;61956;52.540;13.382;2023-05-20T09:33:11;60.99;57.69;64.88;;
73663;Laerm;61956;52.540;13.382;2023-05-20T09:35:41;61.01;57.73;64.69;;
73663;Laerm;61956;52.540;13.382;2023-05-20T09:38:11;60.97;57.56;64.65;;
73663;Laerm;61956;52.540;13.382;2023-05-20T09:40:45;60.97;57.67;64.62;;
73663;Laerm;61956;52.540;13.382;2023-05-20T09:43:16;60.99;57.62;65.06;;
73663;Laerm;61956;52.540;13.382;2023-05-20T09:45:45;61.03;57.72;64.91;;
73663;Laerm;61956;52.540;13.382;2023-05-20T09:48:15;60.99;57.83;64.45;;
73663;Laerm;61956;52.540;13.382;2023-05-20T09:50:45;61.02;57.57;65.04;;
73663;Laerm;61956;52.540;13.382;2023-05-20T09:53:15;61.00;57.71;65.08;;
73663;Laerm;61956;52.540;13.382;2023-05-20T09:55:48;60.97;57.62;64.96;;
73663;Laerm;61956;52.540;13.382;2023-05-20T09:58:19;60.94;57.78;65.34;;
73663;Laerm;61956;52.540;13.382;2023-05-20T10:00:49;61.08;57.62;65.18;;
73663;Laerm;61956;52.540;13.382;2023-05-20T10:03:21;60.99;57.91;64.85;;
73663;Laerm;61956;52.540;13.382;2023-05-20T10:06:12;60.99;57.49;64.74;;
73663;Laerm;61956;52.540;13.382;2023-05-20T10:09:17;60.99;57.70;65.52;;
73663;Laerm;61956;52.540;13.382;2023-05-20T10:12:06;60.96;57.54;64.72;;
73663;Laerm;61956;52.540;13.382;2023-05-20T10:14:50;60.95;57.69;64.54;;
73663;Laerm;61956;52.540;13.382;2023-05-20T10:17:38;60.94;57.75;64.63;;
73663;Laerm;61956;52.540;13.382;2023-05-20T10:20:08;61.03;57.90;66.14;;
73663;Laerm;61956;52.540;13.382;2023-05-20T10:22:38;60.93;57.80;64.40;;
73663;Laerm;61956;52.540;13.382;2023-05-20T10:25:23;60.98;57.74;64.51;;
73663;Laerm;61956;52.540;13.382;2023-05-20T10:28:06;60.99;57.77;64.71;;
73663;Laerm;61956;52.540;13.382;2023-05-20T10:30:36;60.98;57.68;65.36;;
73663;Laerm;61956;52.540;13.382;2023-05-20T10:33:05;60.97;57.85;64.73;;
73663;Laerm;61956;52.540;13.382;2023-05-20T10:35:34;61.02;57.79;64.54;;
73663;Laerm;61956;52.540;13.382;2023-05-20T10:38:10;61.10;57.65;74.71;;
73663;Laerm;61956;52.540;13.382;2023-05-20T10:40:39;61.00;57.67;64.89;;
73663;Laerm;61956;52.540;13.382;2023-05-20T10:43:13;60.97;57.32;65.01;;
73663;Laerm;61956;52.540;13.382;2023-05-20T10:45:48;61.10;57.75;66.47;;
73663;Laerm;61956;52.540;13.382;2023-05-20T10:48:27;61.01;57.88;69.45;;
73663;Laerm;61956;52.540;13.382;2023-05-20T10:51:01;61.06;57.98;71.36;;
73663;Laerm;61956;52.540;13.382;2023-05-20T10:53:38;60.94;57.76;68.83;;
73663;Laerm;61956;52.540;13.382;2023-05-20T10:56:16;61.02;57.81;70.27;;
73663;Laerm;61956;52.540;13.382;2023-05-20T10:58:50;60.94;57.65;68.42;;
73663;Laerm;61956;52.540;13.382;2023-05-20T11:01:24;60.91;57.79;65.09;;
73663;Laerm;61956;52.540;13.382;2023-05-20T11:03:54;60.97;57.93;67.24;;
73663;Laerm;61956;52.540;13.382;2023-05-20T11:06:26;60.82;57.70;64.74;;
73663;Laerm;61956;52.540;13.382;2023-05-20T11:09:03;60.85;57.81;64.58;;
73663;Laerm;61956;52.540;13.382;2023-05-20T11:11:33;60.84;57.90;65.03;;
73663;Laerm;61956;52.540;13.382;2023-05-20T11:14:06;60.85;57.63;64.91;;
73663;Laerm;61956;52.540;13.382;2023-05-20T11:16:38;60.86;57.69;64.69;;
73663;Laerm;61956;52.540;13.382;2023-05-20T11:19:08;60.77;57.89;64.58;;
73663;Laerm;61956;52.540;13.382;2023-05-20T11:21:43;60.85;57.79;64.47;;
73663;Laerm;61956;52.540;13.382;2023-05-20T11:24:12;60.89;57.87;64.52;;
73663;Laerm;61956;52.540;13.382;2023-05-20T11:26:41;60.85;57.63;64.94;;
73663;Laerm;61956;52.540;13.382;2023-05-20T11:29:13;60.80;57.73;64.28;;
73663;Laerm;61956;52.540;13.382;2023-05-20T11:31:46;60.77;57.70;64.49;;
73663;Laerm;61956;52.540;13.382;2023-05-20T11:34:19;60.86;57.84;64.64;;
73663;Laerm;61956;52.540;13.382;2023-05-20T11:36:55;61.13;57.90;70.75;;
73663;Laerm;61956;52.540;13.382;2023-05-20T11:39:28;62.44;57.83;74.15;;
73663;Laerm;61956;52.540;13.382;2023-05-20T11:41:58;61.39;57.89;71.52;;
73663;Laerm;61956;52.540;13.382;2023-05-20T11:44:30;61.03;57.96;71.72;;
73663;Laerm;61956;52.540;13.382;2023-05-20T11:47:01;60.88;57.91;64.63;;
73663;Laerm;61956;52.540;13.382;2023-05-20T11:49:39;60.78;57.81;66.35;;
73663;Laerm;61956;52.540;13.382;2023-05-20T11:52:09;60.84;57.82;66.19;;
73663;Laerm;61956;52.540;13.382;2023-05-20T11:54:39;60.77;57.85;64.71;;
73663;Laerm;61956;52.540;13.382;2023-05-20T11:57:10;60.71;57.75;63.93;;
73663;Laerm;61956;52.540;13.382;2023-05-20T11:59:43;60.76;57.73;65.43;;
73663;Laerm;61956;52.540;13.382;2023-05-20T12:02:12;60.76;57.80;64.99;;
73663;Laerm;61956;52.540;13.382;2023-05-20T12:04:42;60.90;57.81;74.00;;
73663;Laerm;61956;52.540;13.382;2023-05-20T12:07:11;60.75;57.81;65.10;;
73663;Laerm;61956;52.540;13.382;2023-05-20T12:09:40;60.73;57.74;65.19;;
73663;Laerm;61956;52.540;13.382;2023-05-20T12:12:11;60.77;57.77;65.47;;
73663;Laerm;61956;52.540;13.382;2023-05-20T12:14:44;60.85;57.58;64.59;;
73663;Laerm;61956;52.540;13.382;2023-05-20T12:17:13;60.93;57.71;65.23;;
73663;Laerm;61956;52.540;13.382;2023-05-20T12:19:42;60.71;57.69;64.41;;
73663;Laerm;61956;52.540;13.382;2023-05-20T12:22:11;60.82;57.76;68.45;;
73663;Laerm;61956;52.540;13.382;2023-05-20T12:24:41;60.70;57.66;64.41;;
73663;Laerm;61956;52.540;13.382;2023-05-20T12:27:10;60.80;57.77;64.60;;
73663;Laerm;61956;52.540;13.382;2023-05-20T12:29:39;60.74;57.79;64.41;;
73663;Laerm;61956;52.540;13.382;2023-05-20T12:32:11;60.86;57.64;68.29;;
73663;Laerm;61956;52.540;13.382;2023-05-20T12:34:40;60.77;57.84;64.49;;
73663;Laerm;61956;52.540;13.382;2023-05-20T12:37:10;60.71;57.59;64.21;;
73663;Laerm;61956;52.540;13.382;2023-05-20T12:39:39;60.70;57.60;64.48;;
73663;Laerm;61956;52.540;13.382;2023-05-20T12:42:08;60.97;57.70;73.97;;
73663;Laerm;61956;52.540;13.382;2023-05-20T12:44:37;60.76;57.44;64.52;;
73663;Laerm;61956;52.540;13.382;2023-05-20T12:47:10;60.76;57.78;64.58;;
73663;Laerm;61956;52.540;13.382;2023-05-20T12:49:40;60.77;57.68;64.43;;
73663;Laerm;61956;52.540;13.382;2023-05-20T12:52:09;60.75;57.68;64.47;;
73663;Laerm;61956;52.540;13.382;2023-05-20T12:54:38;60.80;57.57;72.16;;
73663;Laerm;61956;52.540;13.382;2023-05-20T12:57:07;60.89;57.66;67.41;;
73663;Laerm;61956;52.540;13.382;2023-05-20T12:59:37;60.93;57.89;65.28;;
73663;Laerm;61956;52.540;13.382;2023-05-20T13:02:06;61.15;57.86;70.34;;
73663;Laerm;61956;52.540;13.382;2023-05-20T13:04:38;60.90;57.63;68.67;;
73663;Laerm;61956;52.540;13.382;2023-05-20T13:07:07;60.73;57.48;64.90;;
73663;Laerm;61956;52.540;13.382;2023-05-20T13:09:36;60.86;57.66;64.52;;
73663;Laerm;61956;52.540;13.382;2023-05-20T13:12:07;60.94;57.79;69.09;;
73663;Laerm;61956;52.540;13.382;2023-05-20T13:14:36;60.83;57.48;64.43;;
73663;Laerm;61956;52.540;13.382;2023-05-20T13:17:06;60.83;57.64;64.65;;
73663;Laerm;61956;52.540;13.382;2023-05-20T13:19:38;60.78;57.84;65.55;;
73663;Laerm;61956;52.540;13.382;2023-05-20T13:22:08;60.71;57.62;65.38;;
73663;Laerm;61956;52.540;13.382;2023-05-20T13:24:37;60.81;57.71;66.20;;
73663;Laerm;61956;52.540;13.382;2023-05-20T13:27:07;60.79;57.83;65.89;;
73663;Laerm;61956;52.540;13.382;2023-05-20T13:29:36;60.78;57.82;64.65;;
73663;Laerm;61956;52.540;13.382;2023-05-20T13:32:06;60.81;57.73;64.15;;
73663;Laerm;61956;52.540;13.382;2023-05-20T13:34:38;60.81;57.76;66.21;;
73663;Laerm;61956;52.540;13.382;2023-05-20T13:37:07;60.74;57.54;64.77;;
73663;Laerm;61956;52.540;13.382;2023-05-20T13:39:36;60.75;57.86;64.36;;
73663;Laerm;61956;52.540;13.382;2023-05-20T13:42:06;60.63;57.72;63.92;;
73663;Laerm;61956;52.540;13.382;2023-05-20T13:44:35;60.84;57.65;64.68;;
73663;Laerm;61956;52.540;13.382;2023-05-20T13:47:04;60.84;57.83;64.45;;
73663;Laerm;61956;52.540;13.382;2023-05-20T13:49:34;60.80;57.74;65.24;;
73663;Laerm;61956;52.540;13.382;2023-05-20T13:52:06;60.87;57.81;75.71;;
73663;Laerm;61956;52.540;13.382;2023-05-20T13:54:35;60.91;57.70;65.19;;
73663;Laerm;61956;52.540;13.382;2023-05-20T13:57:05;61.45;58.15;65.86;;